TKJ2GK LTFJ-LTAC
Flight info
| Callsign | TKJ2GK |
|---|---|
| Flight time | 0h 31m |
| Altitude | 25000 |
| Route | VICEN1J/06L VICEN UT380 ASMAP UL333 LATGA |
| Aircraft | A320/M-SDE3FGHIRWY/LB1 |
Departure
| Time | 2026-04-30 18:33 |
|---|---|
| Airport | Istanbul Sabiha Gökçen International Airport (LTFJ) |
Arrival
| Time | 2026-04-30 19:04 |
|---|---|
| Airport | Esenboğa International Airport (LTAC) |
| Time | Latitude | Longitude | Altitude | Speed | Heading |
|---|---|---|---|---|---|
| 2026-04-30 18:11 | 40.90681 | 29.31763 | 284 ft | 0 kts | 334° |
| 2026-04-30 18:20 | 40.90677 | 29.31765 | 311 ft | 3 kts | 334° |
| 2026-04-30 18:20 | 40.90655 | 29.31780 | 311 ft | 2 kts | 334° |
| 2026-04-30 18:20 | 40.90634 | 29.31795 | 309 ft | 4 kts | 327° |
| 2026-04-30 18:20 | 40.90613 | 29.31816 | 310 ft | 4 kts | 310° |
| 2026-04-30 18:21 | 40.90602 | 29.31844 | 311 ft | 4 kts | 260° |
| 2026-04-30 18:21 | 40.90604 | 29.31853 | 310 ft | 0 kts | 244° |
| 2026-04-30 18:23 | 40.90594 | 29.31828 | 311 ft | 6 kts | 244° |
| 2026-04-30 18:24 | 40.90545 | 29.31694 | 311 ft | 10 kts | 244° |
| 2026-04-30 18:24 | 40.90510 | 29.31598 | 311 ft | 13 kts | 244° |
| 2026-04-30 18:24 | 40.90484 | 29.31528 | 311 ft | 7 kts | 244° |
| 2026-04-30 18:25 | 40.90479 | 29.31516 | 310 ft | 3 kts | 243° |
| 2026-04-30 18:25 | 40.90419 | 29.31437 | 311 ft | 7 kts | 170° |
| 2026-04-30 18:25 | 40.90387 | 29.31450 | 311 ft | 7 kts | 151° |
| 2026-04-30 18:26 | 40.90274 | 29.31482 | 311 ft | 10 kts | 217° |
| 2026-04-30 18:26 | 40.90237 | 29.31388 | 310 ft | 13 kts | 244° |
| 2026-04-30 18:26 | 40.90195 | 29.31275 | 310 ft | 15 kts | 244° |
| 2026-04-30 18:27 | 40.90096 | 29.31003 | 311 ft | 19 kts | 244° |
| 2026-04-30 18:27 | 40.90042 | 29.30855 | 311 ft | 18 kts | 244° |
| 2026-04-30 18:28 | 40.89928 | 29.30549 | 311 ft | 18 kts | 244° |
| 2026-04-30 18:28 | 40.89871 | 29.30394 | 310 ft | 20 kts | 244° |
| 2026-04-30 18:28 | 40.89741 | 29.30038 | 311 ft | 21 kts | 244° |
| 2026-04-30 18:29 | 40.89681 | 29.29876 | 307 ft | 19 kts | 244° |
| 2026-04-30 18:29 | 40.89492 | 29.29360 | 305 ft | 20 kts | 244° |
| 2026-04-30 18:30 | 40.89376 | 29.29266 | 303 ft | 10 kts | 156° |
| 2026-04-30 18:30 | 40.89283 | 29.29364 | 301 ft | 13 kts | 90° |
| 2026-04-30 18:31 | 40.89301 | 29.29419 | 304 ft | 0 kts | 63° |
| 2026-04-30 18:32 | 40.89731 | 29.30575 | 315 ft | 143 kts | 63° |
| 2026-04-30 18:33 | 40.90185 | 29.31891 | 844 ft | 160 kts | 64° |
| 2026-04-30 18:33 | 40.91166 | 29.34584 | 2406 ft | 168 kts | 63° |
| 2026-04-30 18:33 | 40.91657 | 29.35985 | 3185 ft | 170 kts | 72° |
| 2026-04-30 18:34 | 40.91657 | 29.37536 | 3937 ft | 173 kts | 106° |
| 2026-04-30 18:34 | 40.90754 | 29.40907 | 4890 ft | 219 kts | 110° |
| 2026-04-30 18:34 | 40.90219 | 29.42914 | 5458 ft | 244 kts | 111° |
| 2026-04-30 18:35 | 40.89626 | 29.45126 | 5734 ft | 267 kts | 111° |
| 2026-04-30 18:35 | 40.88983 | 29.47527 | 6307 ft | 283 kts | 111° |
| 2026-04-30 18:35 | 40.88320 | 29.50010 | 7089 ft | 290 kts | 112° |
| 2026-04-30 18:36 | 40.86963 | 29.55098 | 8769 ft | 298 kts | 113° |
| 2026-04-30 18:36 | 40.86270 | 29.57693 | 9608 ft | 302 kts | 114° |
| 2026-04-30 18:36 | 40.84797 | 29.63138 | 10517 ft | 336 kts | 114° |
| 2026-04-30 18:37 | 40.83980 | 29.66143 | 10739 ft | 357 kts | 114° |
| 2026-04-30 18:37 | 40.83134 | 29.69280 | 11287 ft | 366 kts | 113° |
| 2026-04-30 18:37 | 40.82279 | 29.72467 | 11962 ft | 370 kts | 113° |
| 2026-04-30 18:37 | 40.81413 | 29.75689 | 12626 ft | 375 kts | 113° |
| 2026-04-30 18:38 | 40.80536 | 29.78943 | 13300 ft | 379 kts | 113° |
| 2026-04-30 18:38 | 40.79648 | 29.82233 | 13973 ft | 383 kts | 113° |
| 2026-04-30 18:38 | 40.78748 | 29.85557 | 14566 ft | 387 kts | 114° |
| 2026-04-30 18:38 | 40.77837 | 29.88912 | 15140 ft | 390 kts | 114° |
| 2026-04-30 18:39 | 40.76916 | 29.92298 | 15706 ft | 394 kts | 114° |
| 2026-04-30 18:39 | 40.75981 | 29.95722 | 16245 ft | 398 kts | 114° |
| 2026-04-30 18:39 | 40.75035 | 29.99184 | 16783 ft | 403 kts | 113° |
| 2026-04-30 18:39 | 40.74084 | 30.02678 | 17337 ft | 407 kts | 113° |
| 2026-04-30 18:40 | 40.73134 | 30.06169 | 17885 ft | 411 kts | 113° |
| 2026-04-30 18:40 | 40.72164 | 30.09739 | 18431 ft | 416 kts | 113° |
| 2026-04-30 18:40 | 40.71183 | 30.13340 | 18912 ft | 420 kts | 112° |
| 2026-04-30 18:40 | 40.70191 | 30.16966 | 19419 ft | 423 kts | 112° |
| 2026-04-30 18:41 | 40.69185 | 30.20630 | 19926 ft | 427 kts | 113° |
| 2026-04-30 18:41 | 40.68163 | 30.24326 | 20426 ft | 430 kts | 113° |
| 2026-04-30 18:41 | 40.67144 | 30.28046 | 20890 ft | 435 kts | 110° |
| 2026-04-30 18:41 | 40.66421 | 30.31930 | 21345 ft | 441 kts | 101° |
| 2026-04-30 18:42 | 40.66067 | 30.35968 | 21776 ft | 445 kts | 97° |
| 2026-04-30 18:42 | 40.65414 | 30.44139 | 22710 ft | 451 kts | 97° |
| 2026-04-30 18:42 | 40.65076 | 30.48251 | 23177 ft | 453 kts | 98° |
| 2026-04-30 18:45 | 40.59209 | 30.89742 | 25058 ft | 465 kts | 107° |
| 2026-04-30 18:45 | 40.58342 | 30.93838 | 25059 ft | 465 kts | 107° |
| 2026-04-30 18:45 | 40.57475 | 30.97928 | 25045 ft | 464 kts | 107° |
| 2026-04-30 18:46 | 40.56608 | 31.02006 | 25054 ft | 464 kts | 107° |
| 2026-04-30 18:46 | 40.55734 | 31.06095 | 25051 ft | 463 kts | 107° |
| 2026-04-30 18:46 | 40.54859 | 31.10181 | 25046 ft | 463 kts | 107° |
| 2026-04-30 18:46 | 40.53982 | 31.14263 | 25046 ft | 463 kts | 108° |
| 2026-04-30 18:47 | 40.53106 | 31.18330 | 25046 ft | 463 kts | 107° |
| 2026-04-30 18:47 | 40.52231 | 31.22403 | 25038 ft | 463 kts | 107° |
| 2026-04-30 18:47 | 40.51351 | 31.26486 | 25033 ft | 462 kts | 107° |
| 2026-04-30 18:47 | 40.50476 | 31.30538 | 25034 ft | 461 kts | 107° |
| 2026-04-30 18:48 | 40.49598 | 31.34601 | 25032 ft | 461 kts | 107° |
| 2026-04-30 18:48 | 40.48722 | 31.38646 | 25036 ft | 462 kts | 108° |
| 2026-04-30 18:48 | 40.47837 | 31.42706 | 25027 ft | 462 kts | 108° |
| 2026-04-30 18:48 | 40.46958 | 31.46723 | 25026 ft | 463 kts | 108° |
| 2026-04-30 18:49 | 40.46067 | 31.50787 | 25027 ft | 463 kts | 108° |
| 2026-04-30 18:49 | 40.45170 | 31.54895 | 25015 ft | 462 kts | 107° |
| 2026-04-30 18:49 | 40.44300 | 31.58896 | 25025 ft | 460 kts | 107° |
| 2026-04-30 18:49 | 40.43410 | 31.62977 | 25023 ft | 460 kts | 107° |
| 2026-04-30 18:50 | 40.42537 | 31.66960 | 25015 ft | 460 kts | 107° |
| 2026-04-30 18:50 | 40.41652 | 31.70993 | 25016 ft | 460 kts | 107° |
| 2026-04-30 18:50 | 40.40765 | 31.75016 | 25015 ft | 459 kts | 108° |
| 2026-04-30 18:50 | 40.39874 | 31.79048 | 25009 ft | 459 kts | 108° |
| 2026-04-30 18:51 | 40.38983 | 31.83070 | 25011 ft | 459 kts | 108° |
| 2026-04-30 18:51 | 40.38092 | 31.87096 | 25011 ft | 459 kts | 108° |
| 2026-04-30 18:51 | 40.37200 | 31.91113 | 24871 ft | 462 kts | 108° |
| 2026-04-30 18:51 | 40.36300 | 31.95164 | 24395 ft | 461 kts | 107° |
| 2026-04-30 18:52 | 40.35406 | 31.99177 | 23940 ft | 458 kts | 108° |
| 2026-04-30 18:52 | 40.34511 | 32.03171 | 23462 ft | 455 kts | 108° |
| 2026-04-30 18:52 | 40.33787 | 32.07186 | 22917 ft | 452 kts | 99° |
| 2026-04-30 18:52 | 40.33564 | 32.11281 | 22380 ft | 450 kts | 89° |
| 2026-04-30 18:53 | 40.33845 | 32.15358 | 21839 ft | 447 kts | 81° |
| 2026-04-30 18:53 | 40.34307 | 32.19367 | 21322 ft | 442 kts | 82° |
| 2026-04-30 18:53 | 40.34762 | 32.23328 | 20817 ft | 439 kts | 82° |
| 2026-04-30 18:53 | 40.35214 | 32.27276 | 20316 ft | 435 kts | 82° |
| 2026-04-30 18:54 | 40.35627 | 32.31200 | 19832 ft | 432 kts | 86° |
| 2026-04-30 18:54 | 40.35626 | 32.35109 | 19342 ft | 427 kts | 97° |
| 2026-04-30 18:54 | 40.35124 | 32.38901 | 18865 ft | 419 kts | 107° |
| 2026-04-30 18:54 | 40.34392 | 32.42582 | 18397 ft | 414 kts | 107° |
| 2026-04-30 18:55 | 40.33673 | 32.46210 | 17876 ft | 410 kts | 107° |
| 2026-04-30 18:55 | 40.32271 | 32.53354 | 16811 ft | 395 kts | 108° |
| 2026-04-30 18:55 | 40.31358 | 32.56639 | 16297 ft | 374 kts | 118° |
| 2026-04-30 18:56 | 40.28540 | 32.61888 | 15301 ft | 339 kts | 141° |
| 2026-04-30 18:56 | 40.26720 | 32.63723 | 14802 ft | 323 kts | 153° |
| 2026-04-30 18:56 | 40.24715 | 32.64982 | 14318 ft | 310 kts | 165° |
| 2026-04-30 18:57 | 40.20637 | 32.65750 | 13310 ft | 287 kts | 188° |
| 2026-04-30 18:57 | 40.18698 | 32.65367 | 12792 ft | 278 kts | 197° |
| 2026-04-30 18:57 | 40.16863 | 32.64770 | 12277 ft | 273 kts | 197° |
| 2026-04-30 18:58 | 40.13185 | 32.63941 | 11271 ft | 270 kts | 176° |
| 2026-04-30 18:58 | 40.11376 | 32.64698 | 10772 ft | 274 kts | 152° |
| 2026-04-30 18:58 | 40.09939 | 32.66336 | 10287 ft | 276 kts | 136° |
| 2026-04-30 18:59 | 40.07334 | 32.69921 | 9693 ft | 272 kts | 136° |
| 2026-04-30 19:00 | 40.03725 | 32.75638 | 8683 ft | 271 kts | 128° |
| 2026-04-30 19:00 | 40.02616 | 32.77623 | 8368 ft | 270 kts | 128° |
| 2026-04-30 19:00 | 40.00414 | 32.81562 | 7743 ft | 267 kts | 126° |
| 2026-04-30 19:01 | 39.99799 | 32.86143 | 7159 ft | 265 kts | 70° |
| 2026-04-30 19:01 | 40.00759 | 32.88155 | 6829 ft | 262 kts | 42° |
| 2026-04-30 19:02 | 40.03751 | 32.91064 | 5093 ft | 276 kts | 36° |
| 2026-04-30 19:02 | 40.06552 | 32.93722 | 4246 ft | 225 kts | 36° |
| 2026-04-30 19:03 | 40.08913 | 32.95939 | 3788 ft | 191 kts | 36° |
| 2026-04-30 19:03 | 40.10810 | 32.97746 | 3294 ft | 150 kts | 38° |
| 2026-04-30 19:04 | 40.12344 | 32.99213 | 3118 ft | 103 kts | 36° |
| 2026-04-30 19:04 | 40.12963 | 32.99825 | 3121 ft | 27 kts | 51° |
| 2026-04-30 19:05 | 40.13082 | 33.00083 | 3125 ft | 13 kts | 64° |
| 2026-04-30 19:05 | 40.12972 | 33.00119 | 3125 ft | 15 kts | 216° |
| 2026-04-30 19:06 | 40.12773 | 32.99929 | 3123 ft | 20 kts | 216° |
| 2026-04-30 19:06 | 40.12652 | 32.99814 | 3123 ft | 22 kts | 216° |
| 2026-04-30 19:06 | 40.12387 | 32.99560 | 3120 ft | 23 kts | 216° |
| 2026-04-30 19:07 | 40.12124 | 32.99308 | 3117 ft | 21 kts | 216° |
| 2026-04-30 19:07 | 40.12001 | 32.99191 | 3115 ft | 21 kts | 216° |
| 2026-04-30 19:08 | 40.11798 | 32.99056 | 3113 ft | 15 kts | 142° |
| 2026-04-30 19:08 | 40.11730 | 32.99247 | 3113 ft | 14 kts | 69° |
| 2026-04-30 19:08 | 40.11762 | 32.99370 | 3113 ft | 14 kts | 76° |
| 2026-04-30 19:09 | 40.11741 | 32.99492 | 3113 ft | 8 kts | 173° |
| 2026-04-30 19:09 | 40.11714 | 32.99497 | 3113 ft | 2 kts | 172° |
| 2026-04-30 19:09 | 40.11706 | 32.99498 | 3113 ft | 0 kts | 172° |